Time;durP1;ratioP1;P1;durP2;ratioP2;P2;SDS_P1;SDS_P2;PMS_P1;PMS_P2;Temp;Humidity;BMP_temperature;BMP_pressure;BME280_temperature;BME280_humidity;BME280_pressure;Samples;Min_cycle;Max_cycle;Signal;HPM_P1;HPM_P2
2022/11/24 00:00:31;;;;;;;78.92;34.05;;;;;;;0.62;100.00;97039.56;1713954;83;21458;-81
2022/11/24 00:03:00;;;;;;;71.77;30.80;;;;;;;0.63;100.00;97043.84;1714118;82;21580;-77
2022/11/24 00:05:27;;;;;;;65.22;29.00;;;;;;;0.64;100.00;97037.98;1713856;83;21012;-77
2022/11/24 00:07:54;;;;;;;79.90;33.18;;;;;;;0.61;100.00;97043.28;1714221;82;20980;-81
2022/11/24 00:10:21;;;;;;;64.25;30.45;;;;;;;0.63;100.00;97045.17;1714157;83;21007;-77
2022/11/24 00:12:47;;;;;;;67.70;30.23;;;;;;;0.68;100.00;97045.25;1714203;83;20963;-78
2022/11/24 00:15:14;;;;;;;68.97;29.27;;;;;;;0.69;100.00;97050.09;1714239;83;21018;-77
2022/11/24 00:17:41;;;;;;;65.70;27.35;;;;;;;0.72;100.00;97058.92;1714376;83;21003;-81
2022/11/24 00:20:09;;;;;;;68.25;32.33;;;;;;;0.72;100.00;97062.41;1714153;83;20964;-81
2022/11/24 00:22:36;;;;;;;63.65;26.77;;;;;;;0.74;100.00;97066.96;1714269;82;21540;-77
2022/11/24 00:25:03;;;;;;;68.33;31.02;;;;;;;0.73;100.00;97064.02;1714345;83;21428;-77
2022/11/24 00:27:30;;;;;;;90.45;35.05;;;;;;;0.77;100.00;97057.17;1714197;82;21110;-77
2022/11/24 00:29:58;;;;;;;79.80;35.23;;;;;;;0.80;100.00;97068.68;1714299;83;20997;-82
2022/11/24 00:32:28;;;;;;;80.00;32.90;;;;;;;0.82;100.00;97065.24;1714174;83;20971;-77
2022/11/24 00:34:55;;;;;;;65.57;29.15;;;;;;;0.83;100.00;97066.05;1714190;83;20978;-76
2022/11/24 00:37:22;;;;;;;60.12;27.27;;;;;;;0.79;100.00;97068.40;1714170;83;21035;-77
2022/11/24 00:39:49;;;;;;;70.15;29.82;;;;;;;0.83;100.00;97071.38;1714191;83;20964;-77
2022/11/24 00:42:17;;;;;;;63.90;27.93;;;;;;;0.84;100.00;97067.66;1707056;83;22100;-77
2022/11/24 00:44:44;;;;;;;70.63;33.97;;;;;;;0.86;100.00;97070.92;1699451;84;20989;-81
2022/11/24 00:47:11;;;;;;;70.17;29.82;;;;;;;0.88;100.00;97069.34;1699396;84;21010;-81
2022/11/24 00:49:38;;;;;;;67.60;30.08;;;;;;;0.88;100.00;97070.67;1699129;84;20963;-77
2022/11/24 00:52:05;;;;;;;84.30;40.58;;;;;;;0.84;100.00;97075.66;1699470;84;20974;-81
2022/11/24 00:54:32;;;;;;;73.70;32.75;;;;;;;0.85;100.00;97078.61;1699266;84;21024;-81
2022/11/24 00:56:59;;;;;;;83.87;33.83;;;;;;;0.84;100.00;97079.66;1699014;84;21478;-81
2022/11/24 00:59:26;;;;;;;79.42;36.05;;;;;;;0.80;100.00;97081.20;1699082;83;21042;-76
2022/11/24 01:01:52;;;;;;;77.40;30.35;;;;;;;0.72;100.00;97085.06;1699418;83;21042;-76
2022/11/24 01:04:19;;;;;;;72.95;28.55;;;;;;;0.60;100.00;97082.99;1698962;84;21677;-76
2022/11/24 01:06:46;;;;;;;64.95;27.40;;;;;;;0.46;100.00;97085.65;1699383;83;21001;-77
2022/11/24 01:09:13;;;;;;;62.35;27.40;;;;;;;0.43;100.00;97085.61;1699107;83;20958;-81
2022/11/24 01:14:25;;;;;;;70.83;28.50;;;;;;;0.45;100.00;97080.84;1699101;83;21069;-77
2022/11/24 01:16:52;;;;;;;76.25;28.12;;;;;;;0.44;100.00;97082.42;1699602;84;21017;-81
2022/11/24 01:19:19;;;;;;;69.45;26.75;;;;;;;0.41;100.00;97088.20;1699072;83;20997;-77
2022/11/24 01:21:46;;;;;;;63.52;27.42;;;;;;;0.40;100.00;97099.91;1699354;83;21085;-77
2022/11/24 01:24:13;;;;;;;59.63;26.93;;;;;;;0.32;100.00;97097.09;1699232;84;20991;-77
2022/11/24 01:26:40;;;;;;;64.27;25.20;;;;;;;0.34;100.00;97096.33;1699390;84;20994;-76
2022/11/24 01:29:08;;;;;;;75.25;28.95;;;;;;;0.33;100.00;97098.71;1699295;84;21057;-81
2022/11/24 01:31:35;;;;;;;62.45;27.80;;;;;;;0.31;100.00;97105.34;1699626;83;21041;-81
2022/11/24 01:34:02;;;;;;;54.93;24.72;;;;;;;0.26;100.00;97103.39;1699141;84;20962;-77
2022/11/24 01:36:29;;;;;;;60.73;25.90;;;;;;;0.21;100.00;97105.95;1699302;83;21001;-77
2022/11/24 01:38:56;;;;;;;68.45;28.60;;;;;;;0.24;100.00;97105.46;1699317;84;21013;-81
2022/11/24 01:41:24;;;;;;;58.90;25.52;;;;;;;0.16;100.00;97110.63;1706788;83;20989;-76
2022/11/24 01:43:52;;;;;;;71.15;31.57;;;;;;;0.13;100.00;97112.44;1699363;84;21012;-77
2022/11/24 01:46:41;;;;;;;70.62;30.35;;;;;;;0.16;100.00;97113.81;1699359;84;21048;-76
2022/11/24 01:49:16;;;;;;;61.23;24.65;;;;;;;0.19;100.00;97117.37;1699304;84;21031;-76
2022/11/24 01:51:51;;;;;;;73.05;33.63;;;;;;;0.21;100.00;97124.59;1699437;83;21006;-81
2022/11/24 01:54:31;;;;;;;71.37;27.73;;;;;;;0.21;100.00;97124.59;1699112;83;20982;-80
2022/11/24 01:57:02;;;;;;;66.17;29.50;;;;;;;0.17;100.00;97118.94;1699204;84;21026;-81
2022/11/24 01:59:29;;;;;;;57.73;25.45;;;;;;;0.23;100.00;97127.30;1699058;84;20978;-77
2022/11/24 02:01:56;;;;;;;69.82;27.25;;;;;;;0.24;100.00;97133.44;1679424;84;21761;-77
2022/11/24 02:04:27;;;;;;;60.00;27.22;;;;;;;0.25;100.00;97135.05;1679027;84;21005;-81
2022/11/24 02:06:53;;;;;;;65.35;28.42;;;;;;;0.27;100.00;97132.47;1699507;84;21036;-76
2022/11/24 02:09:54;;;;;;;69.92;28.85;;;;;;;0.28;100.00;97134.08;1699075;83;21711;-80
2022/11/24 02:12:22;;;;;;;66.37;24.77;;;;;;;0.30;100.00;97137.03;1664561;84;21430;-81
2022/11/24 02:14:49;;;;;;;65.75;25.97;;;;;;;0.30;100.00;97135.17;1699080;84;21038;-77
2022/11/24 02:17:16;;;;;;;78.35;33.30;;;;;;;0.35;100.00;97137.95;1679117;84;20990;-77
2022/11/24 02:19:57;;;;;;;68.22;30.45;;;;;;;0.42;100.00;97143.13;1699326;83;20985;-77
2022/11/24 02:23:01;;;;;;;67.10;26.87;;;;;;;0.43;100.00;97141.58;1698164;84;21049;-81
2022/11/24 02:25:54;;;;;;;60.67;27.90;;;;;;;0.37;100.00;97145.70;1699111;84;20982;-76
2022/11/24 02:28:21;;;;;;;66.97;26.93;;;;;;;0.39;100.00;97155.08;1699046;84;20985;-81
2022/11/24 02:30:50;;;;;;;58.20;27.07;;;;;;;0.40;100.00;97156.70;1699142;84;20986;-81
2022/11/24 02:33:17;;;;;;;62.73;27.67;;;;;;;0.38;100.00;97158.80;1699274;83;27049;-77
2022/11/24 02:35:44;;;;;;;56.13;23.90;;;;;;;0.38;100.00;97152.66;1699220;84;21025;-77
2022/11/24 02:38:16;;;;;;;65.32;23.57;;;;;;;0.23;100.00;97151.81;1699145;83;20967;-81
2022/11/24 02:40:43;;;;;;;70.40;26.07;;;;;;;0.18;100.00;97149.86;1703290;82;21037;-77
2022/11/24 02:43:14;;;;;;;55.30;26.40;;;;;;;0.17;100.00;97149.58;1701402;83;20998;-77
2022/11/24 02:45:41;;;;;;;55.80;23.50;;;;;;;0.13;100.00;97143.61;1699040;83;20998;-77
2022/11/24 02:48:07;;;;;;;55.33;25.70;;;;;;;0.08;100.00;97149.63;1699154;83;21522;-76
2022/11/24 02:50:35;;;;;;;71.87;26.73;;;;;;;0.13;100.00;97145.75;1699174;83;20988;-81
2022/11/24 02:53:02;;;;;;;71.60;28.87;;;;;;;0.15;100.00;97134.33;1699371;84;20997;-81
2022/11/24 02:55:28;;;;;;;65.42;26.97;;;;;;;0.07;100.00;97145.34;1699147;83;20982;-80
2022/11/24 02:57:55;;;;;;;58.58;25.02;;;;;;;0.05;100.00;97147.95;1699306;84;21398;-81
2022/11/24 03:00:22;;;;;;;62.48;27.17;;;;;;;0.02;100.00;97144.44;1699227;84;21031;-76
2022/11/24 03:02:49;;;;;;;61.50;25.35;;;;;;;-0.01;100.00;97150.50;1699035;83;21049;-81
2022/11/24 03:05:16;;;;;;;64.72;27.52;;;;;;;0.03;100.00;97155.38;1699250;84;20994;-81
2022/11/24 03:07:43;;;;;;;55.55;23.83;;;;;;;0.06;100.00;97157.05;1699075;83;21037;-81
2022/11/24 03:10:10;;;;;;;55.55;25.92;;;;;;;0.09;100.00;97163.26;1699198;84;21025;-77
2022/11/24 03:12:37;;;;;;;63.52;26.40;;;;;;;0.12;100.00;97157.98;1699318;83;21559;-76
2022/11/24 03:15:05;;;;;;;53.52;25.35;;;;;;;0.13;100.00;97166.25;1699331;84;21187;-77
2022/11/24 03:17:32;;;;;;;62.00;28.83;;;;;;;0.09;100.00;97167.78;1699502;84;21022;-81
2022/11/24 03:20:01;;;;;;;58.45;25.05;;;;;;;0.12;100.00;97165.97;1699297;83;20978;-81
2022/11/24 03:22:27;;;;;;;55.20;24.77;;;;;;;0.04;100.00;97164.98;1699363;83;21100;-76
2022/11/24 03:24:54;;;;;;;62.38;26.75;;;;;;;0.04;100.00;97166.32;1699230;83;21049;-81
2022/11/24 03:27:21;;;;;;;60.25;27.48;;;;;;;0.03;100.00;97168.70;1699256;83;21434;-80
2022/11/24 03:29:48;;;;;;;58.78;24.60;;;;;;;0.04;100.00;97168.98;1699371;83;20973;-81
2022/11/24 03:32:15;;;;;;;56.05;25.30;;;;;;;0.08;100.00;97173.59;1699228;83;20986;-81
2022/11/24 03:34:42;;;;;;;66.95;25.62;;;;;;;0.07;100.00;97181.83;1699495;83;20982;-81
2022/11/24 03:37:09;;;;;;;58.25;26.70;;;;;;;0.05;100.00;97183.92;1699098;84;21711;-81
2022/11/24 03:39:36;;;;;;;53.70;23.15;;;;;;;0.04;100.00;97181.78;1699266;83;21061;-81
2022/11/24 03:42:03;;;;;;;59.40;24.82;;;;;;;0.06;100.00;97184.20;1711671;83;20976;-77
2022/11/24 03:44:30;;;;;;;52.95;22.60;;;;;;;0.08;100.00;97178.12;1714305;82;21041;-76
2022/11/24 03:46:57;;;;;;;52.43;24.07;;;;;;;0.02;100.00;97175.08;1714324;83;21010;-76
2022/11/24 03:49:24;;;;;;;52.67;23.00;;;;;;;0.01;100.00;97178.27;1714280;83;21949;-76
2022/11/24 03:51:50;;;;;;;52.43;23.98;;;;;;;0.04;100.00;97182.30;1714317;83;21003;-81
2022/11/24 03:54:17;;;;;;;47.80;22.75;;;;;;;0.03;100.00;97181.50;1714196;83;20995;-77
2022/11/24 03:56:44;;;;;;;55.48;26.05;;;;;;;-0.01;100.00;97185.65;1714361;83;21006;-76
2022/11/24 03:59:11;;;;;;;54.15;23.35;;;;;;;0.02;100.00;97186.54;1714349;83;21431;-76
2022/11/24 04:01:38;;;;;;;55.55;22.37;;;;;;;0.01;100.00;97188.11;1714218;83;21051;-77
2022/11/24 04:04:05;;;;;;;57.55;25.45;;;;;;;-0.06;100.00;97195.69;1714238;83;20994;-76
2022/11/24 04:06:32;;;;;;;57.62;24.20;;;;;;;-0.12;100.00;97200.59;1714515;83;20991;-77
2022/11/24 04:08:59;;;;;;;55.70;23.55;;;;;;;-0.09;100.00;97198.80;1714290;82;21949;-76
2022/11/24 04:14:11;;;;;;;63.80;25.60;;;;;;;-0.02;100.00;97205.34;1714305;83;21759;-81
2022/11/24 04:16:38;;;;;;;66.72;26.10;;;;;;;-0.01;100.00;97201.63;1714245;83;21383;-81
2022/11/24 04:19:05;;;;;;;69.55;25.82;;;;;;;0.02;100.00;97200.38;1714340;83;21023;-81
2022/11/24 04:21:32;;;;;;;61.10;25.43;;;;;;;0.06;100.00;97198.86;1713145;82;20998;-76
2022/11/24 04:23:59;;;;;;;60.92;28.38;;;;;;;0.11;100.00;97201.65;1712710;82;21089;-80
2022/11/24 04:26:26;;;;;;;65.80;26.50;;;;;;;0.16;100.00;97205.22;1712772;83;21158;-81
2022/11/24 04:28:53;;;;;;;66.80;27.60;;;;;;;0.21;100.00;97205.34;1712685;82;21007;-81
2022/11/24 04:31:20;;;;;;;62.40;24.95;;;;;;;0.24;100.00;97204.05;1712654;83;21014;-77
2022/11/24 04:33:47;;;;;;;63.23;26.33;;;;;;;0.24;100.00;97212.05;1712696;82;21069;-77
2022/11/24 04:36:14;;;;;;;70.83;31.07;;;;;;;0.22;100.00;97214.14;1712750;83;20971;-81
2022/11/24 04:38:40;;;;;;;74.27;31.50;;;;;;;0.23;100.00;97212.58;1695320;82;21463;-77
2022/11/24 04:41:08;;;;;;;66.17;29.23;;;;;;;0.26;100.00;97205.98;1698838;83;21062;-77
2022/11/24 04:43:35;;;;;;;73.83;26.33;;;;;;;0.28;100.00;97214.55;1660389;86;21065;-81
2022/11/24 04:46:01;;;;;;;71.55;29.42;;;;;;;0.32;100.00;97212.22;1660499;85;20987;-81
2022/11/24 04:48:28;;;;;;;67.03;31.05;;;;;;;0.35;100.00;97216.58;1660457;85;20962;-81
2022/11/24 04:50:55;;;;;;;68.33;28.60;;;;;;;0.36;100.00;97217.39;1660549;86;21100;-81
2022/11/24 04:53:22;;;;;;;67.30;25.77;;;;;;;0.39;100.00;97217.72;1660287;86;21042;-76
2022/11/24 04:55:49;;;;;;;70.10;29.60;;;;;;;0.39;100.00;97214.24;1660591;85;21018;-81
2022/11/24 04:58:16;;;;;;;61.15;25.52;;;;;;;0.38;100.00;97220.63;1660368;86;20995;-76
2022/11/24 05:00:43;;;;;;;64.17;27.82;;;;;;;0.38;100.00;97215.29;1660512;86;21034;-76
2022/11/24 05:03:10;;;;;;;62.98;25.80;;;;;;;0.38;100.00;97223.28;1660450;86;21538;-76
2022/11/24 05:05:37;;;;;;;67.47;28.65;;;;;;;0.38;100.00;97230.76;1660509;86;21081;-81
2022/11/24 05:08:04;;;;;;;59.75;25.77;;;;;;;0.36;100.00;97228.86;1660537;86;21061;-77
2022/11/24 05:10:37;;;;;;;63.10;27.60;;;;;;;0.33;100.00;97222.64;1660585;85;22100;-76
2022/11/24 05:13:11;;;;;;;59.08;27.10;;;;;;;0.36;100.00;97226.19;1660547;86;21002;-81
2022/11/24 05:15:39;;;;;;;61.42;24.95;;;;;;;0.39;100.00;97228.38;1660466;86;21187;-77
2022/11/24 05:18:08;;;;;;;65.37;27.00;;;;;;;0.44;100.00;97231.69;1660600;86;20967;-77
2022/11/24 05:20:34;;;;;;;71.72;29.98;;;;;;;0.46;100.00;97238.40;1660689;86;21029;-76
2022/11/24 05:23:03;;;;;;;69.35;26.55;;;;;;;0.47;100.00;97240.02;1648633;86;21021;-77
2022/11/24 05:25:31;;;;;;;65.05;24.43;;;;;;;0.50;100.00;97246.20;1660687;86;21014;-82
2022/11/24 05:28:00;;;;;;;67.55;28.98;;;;;;;0.50;100.00;97248.87;1660492;86;21090;-76
2022/11/24 05:30:27;;;;;;;67.58;30.05;;;;;;;0.50;100.00;97250.72;1660185;86;20995;-81
2022/11/24 05:32:54;;;;;;;67.32;29.07;;;;;;;0.52;100.00;97244.66;1660563;86;21026;-81
2022/11/24 05:35:21;;;;;;;72.25;32.60;;;;;;;0.55;100.00;97245.52;1660605;85;20987;-77
2022/11/24 05:37:48;;;;;;;70.52;28.87;;;;;;;0.53;100.00;97247.61;1660274;86;21478;-77
2022/11/24 05:40:15;;;;;;;78.07;30.68;;;;;;;0.55;100.00;97248.98;1668570;83;21518;-79
2022/11/24 05:42:42;;;;;;;70.28;28.42;;;;;;;0.56;100.00;97248.47;1713368;83;21005;-81
2022/11/24 05:45:14;;;;;;;62.80;28.52;;;;;;;0.55;100.00;97248.98;1714387;83;20987;-81
2022/11/24 05:47:41;;;;;;;66.85;27.10;;;;;;;0.52;100.00;97253.47;1714094;83;20996;-76
2022/11/24 05:50:10;;;;;;;70.95;30.35;;;;;;;0.53;100.00;97251.09;1714369;83;20987;-77
2022/11/24 05:52:37;;;;;;;75.70;29.55;;;;;;;0.56;100.00;97260.46;1713987;82;21001;-77
2022/11/24 05:55:05;;;;;;;81.00;30.52;;;;;;;0.53;100.00;97260.42;1714292;83;21073;-81
2022/11/24 05:57:32;;;;;;;74.50;31.70;;;;;;;0.55;100.00;97263.66;1714039;82;22190;-77
2022/11/24 05:59:59;;;;;;;68.57;26.48;;;;;;;0.59;100.00;97265.31;1714422;83;20976;-81
2022/11/24 06:02:26;;;;;;;67.82;28.60;;;;;;;0.62;100.00;97267.53;1713799;83;21011;-81
2022/11/24 06:04:53;;;;;;;70.92;33.40;;;;;;;0.62;100.00;97264.87;1714303;82;21007;-76
2022/11/24 06:07:20;;;;;;;66.10;28.60;;;;;;;0.65;100.00;97275.58;1708291;82;21277;-81
2022/11/24 06:09:46;;;;;;;65.37;29.15;;;;;;;0.67;100.00;97276.95;1707971;82;21488;-77
2022/11/24 06:12:13;;;;;;;75.42;29.25;;;;;;;0.69;100.00;97275.41;1701345;82;21026;-81
2022/11/24 06:14:41;;;;;;;73.47;32.03;;;;;;;0.71;100.00;97271.45;1709975;82;21065;-81
2022/11/24 06:17:09;;;;;;;79.40;29.20;;;;;;;0.71;100.00;97277.31;1708509;82;21006;-81
2022/11/24 06:19:35;;;;;;;81.60;31.33;;;;;;;0.71;100.00;97283.98;1714413;83;21018;-77
2022/11/24 06:22:02;;;;;;;72.92;30.23;;;;;;;0.71;100.00;97279.98;1712438;83;21460;-81
2022/11/24 06:24:29;;;;;;;65.87;27.77;;;;;;;0.69;100.00;97284.75;1712337;82;20967;-77
2022/11/24 06:26:56;;;;;;;69.82;28.62;;;;;;;0.72;100.00;97289.60;1712507;83;21489;-80
2022/11/24 06:29:23;;;;;;;79.62;33.92;;;;;;;0.68;100.00;97298.58;1708298;82;21437;-77
2022/11/24 06:31:50;;;;;;;110.88;47.73;;;;;;;0.67;100.00;97292.95;1703749;83;20985;-77
2022/11/24 06:34:17;;;;;;;77.20;32.60;;;;;;;0.69;100.00;97296.75;1710766;83;20973;-77
2022/11/24 06:36:44;;;;;;;71.97;33.18;;;;;;;0.67;100.00;97302.81;1707283;82;20993;-81
2022/11/24 06:39:11;;;;;;;77.65;32.50;;;;;;;0.63;100.00;97301.67;1717334;82;21012;-80
2022/11/24 06:41:38;;;;;;;76.65;34.65;;;;;;;0.68;100.00;97304.44;1721712;82;21555;-81
2022/11/24 06:44:05;;;;;;;72.32;31.17;;;;;;;0.69;100.00;97304.22;1707105;82;21504;-81
2022/11/24 06:46:32;;;;;;;77.05;31.37;;;;;;;0.73;100.00;97309.89;1698780;83;21031;-81
2022/11/24 06:48:59;;;;;;;94.45;38.88;;;;;;;0.74;100.00;97310.17;1710053;82;22399;-81
2022/11/24 06:51:26;;;;;;;89.45;37.28;;;;;;;0.78;100.00;97316.16;1705486;82;21014;-81
2022/11/24 06:53:53;;;;;;;74.37;34.85;;;;;;;0.85;100.00;97324.01;1710279;82;21127;-78
2022/11/24 06:56:21;;;;;;;86.70;37.28;;;;;;;0.89;100.00;97323.03;1731982;82;21027;-76
2022/11/24 06:58:50;;;;;;;87.97;42.25;;;;;;;0.89;100.00;97329.17;1711662;82;21775;-77
2022/11/24 07:01:20;;;;;;;106.50;50.63;;;;;;;0.90;100.00;97328.13;1704173;82;21098;-81
2022/11/24 07:03:47;;;;;;;125.33;53.87;;;;;;;0.95;100.00;97326.91;1702545;82;20894;-81
2022/11/24 07:06:15;;;;;;;96.72;43.20;;;;;;;0.98;100.00;97333.63;1702337;82;21767;-81
2022/11/24 07:08:42;;;;;;;97.53;38.05;;;;;;;0.99;100.00;97334.72;1702605;82;21418;-81
2022/11/24 07:11:14;;;;;;;88.75;39.35;;;;;;;0.97;100.00;97330.67;1716204;82;21143;-81
2022/11/24 07:13:42;;;;;;;85.67;40.45;;;;;;;0.99;100.00;97331.24;1708229;82;20969;-81
2022/11/24 07:16:16;;;;;;;96.25;45.83;;;;;;;1.01;100.00;97332.63;1699983;82;21025;-81
2022/11/24 07:18:44;;;;;;;87.22;39.85;;;;;;;1.04;100.00;97335.36;1708644;82;21190;-77
2022/11/24 07:21:11;;;;;;;86.92;38.20;;;;;;;1.07;100.00;97333.55;1710144;82;21096;-76
2022/11/24 07:23:38;;;;;;;105.03;42.95;;;;;;;1.09;100.00;97333.59;1711466;82;21044;-81
2022/11/24 07:26:05;;;;;;;89.50;34.95;;;;;;;1.14;100.00;97343.58;1712314;82;21021;-77
2022/11/24 07:28:32;;;;;;;77.72;32.28;;;;;;;1.19;100.00;97336.18;1716860;82;21222;-77
2022/11/24 07:31:06;;;;;;;78.95;35.28;;;;;;;1.14;100.00;97331.56;1704214;82;21126;-77
2022/11/24 07:33:33;;;;;;;87.55;38.05;;;;;;;1.15;100.00;97339.05;1721400;80;20998;-77
2022/11/24 07:36:00;;;;;;;101.82;45.33;;;;;;;1.11;100.00;97338.69;1713692;82;21013;-76
2022/11/24 07:38:29;;;;;;;88.55;38.33;;;;;;;1.10;100.00;97333.87;1711848;82;21516;-81
2022/11/24 07:41:02;;;;;;;73.83;33.73;;;;;;;1.11;100.00;97341.36;1709475;82;21092;-81
2022/11/24 07:43:30;;;;;;;78.55;32.88;;;;;;;1.18;100.00;97347.91;1718305;82;20969;-81
2022/11/24 07:45:57;;;;;;;69.42;29.32;;;;;;;1.23;100.00;97356.03;1709172;82;21035;-81
2022/11/24 07:48:23;;;;;;;66.28;30.70;;;;;;;1.26;100.00;97356.36;1708646;82;20942;-77
2022/11/24 07:50:50;;;;;;;70.28;32.98;;;;;;;1.30;100.00;97355.38;1703264;82;21138;-77
2022/11/24 07:53:17;;;;;;;71.50;32.67;;;;;;;1.32;100.00;97354.08;1705484;82;21052;-81
2022/11/24 07:55:59;;;;;;;66.87;31.27;;;;;;;1.36;100.00;97360.56;1699710;83;21010;-77
2022/11/24 07:58:28;;;;;;;74.15;34.13;;;;;;;1.40;100.00;97364.39;1665957;82;21084;-81
2022/11/24 08:00:55;;;;;;;60.55;29.20;;;;;;;1.43;100.00;97360.43;1704298;82;21096;-81
2022/11/24 08:03:22;;;;;;;55.65;26.23;;;;;;;1.50;100.00;97370.98;1712795;83;21349;-81
2022/11/24 08:05:57;;;;;;;57.75;27.50;;;;;;;1.51;100.00;97367.26;1699838;82;22121;-81
2022/11/24 08:08:24;;;;;;;56.90;25.95;;;;;;;1.53;100.00;97369.16;1711095;82;21105;-77
2022/11/24 08:10:51;;;;;;;46.25;24.45;;;;;;;1.55;100.00;97371.90;1712076;82;21190;-77
2022/11/24 08:13:18;;;;;;;53.68;26.85;;;;;;;1.59;100.00;97373.56;1712777;82;21056;-77
2022/11/24 08:15:45;;;;;;;55.05;26.55;;;;;;;1.60;100.00;97377.32;1713233;83;21119;-81
2022/11/24 08:18:12;;;;;;;54.85;27.45;;;;;;;1.64;100.00;97376.34;1711644;82;21021;-77
2022/11/24 08:20:39;;;;;;;39.08;21.65;;;;;;;1.66;100.00;97381.72;1711909;82;21645;-77
2022/11/24 08:23:05;;;;;;;42.85;20.25;;;;;;;1.72;100.00;97384.50;1724522;82;21433;-81
2022/11/24 08:25:33;;;;;;;39.20;20.12;;;;;;;1.76;100.00;97389.64;1728963;82;21070;-81
2022/11/24 08:28:03;;;;;;;42.90;21.25;;;;;;;1.80;100.00;97386.27;1702950;83;21037;-77
2022/11/24 08:30:30;;;;;;;33.58;17.50;;;;;;;1.83;100.00;97391.12;1708627;82;21073;-77
2022/11/24 08:33:00;;;;;;;42.08;20.25;;;;;;;1.85;100.00;97386.34;1697423;83;21053;-81
2022/11/24 08:35:27;;;;;;;47.33;28.02;;;;;;;1.87;100.00;97390.92;1696079;82;21076;-81
2022/11/24 08:37:54;;;;;;;40.98;20.55;;;;;;;1.88;100.00;97391.73;1701999;82;20958;-77
2022/11/24 08:40:21;;;;;;;57.48;33.60;;;;;;;1.92;100.00;97386.20;1706896;82;21087;-77
2022/11/24 08:42:48;;;;;;;60.50;33.38;;;;;;;1.94;100.00;97397.45;1691492;82;20993;-77
2022/11/24 08:45:15;;;;;;;52.43;29.18;;;;;;;1.92;100.00;97394.22;1709895;82;21880;-81
2022/11/24 08:47:42;;;;;;;46.02;22.50;;;;;;;1.92;100.00;97400.38;1690646;82;21335;-77
2022/11/24 08:50:09;;;;;;;41.77;23.32;;;;;;;1.98;100.00;97394.61;1706177;82;21521;-81
2022/11/24 08:52:36;;;;;;;44.18;22.52;;;;;;;2.03;100.00;97403.23;1705444;82;21009;-77
2022/11/24 08:55:03;;;;;;;43.05;20.23;;;;;;;2.09;100.00;97400.94;1704291;82;21063;-81
2022/11/24 08:57:30;;;;;;;48.48;25.12;;;;;;;2.15;100.00;97400.80;1709805;82;21053;-81
2022/11/24 08:59:58;;;;;;;43.92;21.35;;;;;;;2.19;100.00;97399.78;1707987;82;21037;-81
2022/11/24 09:02:25;;;;;;;45.60;22.82;;;;;;;2.24;100.00;97407.38;1712309;82;21044;-81
2022/11/24 09:04:52;;;;;;;55.55;26.75;;;;;;;2.21;100.00;97399.81;1706255;83;21011;-81
2022/11/24 09:07:19;;;;;;;49.18;22.70;;;;;;;2.19;100.00;97404.59;1684874;82;21080;-81
2022/11/24 09:09:46;;;;;;;42.23;20.82;;;;;;;2.19;100.00;97405.12;1710075;82;21089;-81
2022/11/24 09:12:13;;;;;;;34.23;19.48;;;;;;;2.23;100.00;97405.75;1714757;82;21174;-77
2022/11/24 09:14:40;;;;;;;38.75;20.60;;;;;;;2.22;100.00;97408.64;1706812;82;21098;-77
2022/11/24 09:17:06;;;;;;;38.63;21.50;;;;;;;2.23;100.00;97404.94;1706397;82;20994;-77
2022/11/24 09:19:33;;;;;;;35.52;17.32;;;;;;;2.22;100.00;97405.47;1707807;82;20989;-77
2022/11/24 09:22:00;;;;;;;34.48;18.35;;;;;;;2.17;100.00;97404.03;1703802;82;21028;-76
2022/11/24 09:24:27;;;;;;;33.02;16.82;;;;;;;2.10;100.00;97407.91;1706144;82;20906;-77
2022/11/24 09:26:55;;;;;;;33.85;21.05;;;;;;;2.12;100.00;97405.80;1710517;82;21418;-77
2022/11/24 09:29:22;;;;;;;40.50;23.95;;;;;;;2.11;100.00;97406.84;1724877;82;21464;-77
2022/11/24 09:31:49;;;;;;;51.68;30.57;;;;;;;2.08;100.00;97406.00;1707351;82;21052;-77
2022/11/24 09:34:16;;;;;;;36.63;21.55;;;;;;;2.04;100.00;97407.52;1679829;82;21496;-77
2022/11/24 09:36:43;;;;;;;47.17;28.15;;;;;;;2.08;100.00;97410.02;1704795;82;21045;-82
2022/11/24 09:39:10;;;;;;;46.13;27.30;;;;;;;2.07;100.00;97415.08;1703571;82;21512;-77
2022/11/24 09:41:55;;;;;;;45.08;25.27;;;;;;;2.08;100.00;97417.50;1704753;82;21595;-77
2022/11/24 09:45:02;;;;;;;35.23;20.70;;;;;;;1.99;100.00;97414.94;1716637;80;21023;-77
2022/11/24 09:47:58;;;;;;;32.70;19.73;;;;;;;1.89;100.00;97418.76;1694668;82;21391;-77
2022/11/24 09:50:31;;;;;;;43.35;25.25;;;;;;;1.84;100.00;97411.44;1702547;82;21091;-77
2022/11/24 09:53:23;;;;;;;38.28;20.62;;;;;;;1.76;100.00;97411.02;1710026;82;21093;-81
2022/11/24 09:55:53;;;;;;;48.65;26.80;;;;;;;1.75;100.00;97406.72;1705865;82;22006;-81
2022/11/24 09:58:47;;;;;;;47.58;27.17;;;;;;;1.65;100.00;97408.67;1695697;82;21089;-81
2022/11/24 10:01:22;;;;;;;56.92;28.57;;;;;;;1.65;100.00;97413.48;1692707;81;21012;-81
2022/11/24 10:03:51;;;;;;;46.68;24.12;;;;;;;1.66;100.00;97414.30;1703258;82;21580;-77
2022/11/24 10:06:21;;;;;;;;;;;;;;;1.61;100.00;97408.31;1708465;82;21083;-77
2022/11/24 10:09:19;;;;;;;47.95;24.05;;;;;;;1.65;100.00;97403.33;1683970;84;20165;-77
2022/11/24 10:12:12;;;;;;;52.58;26.75;;;;;;;1.70;100.00;97409.56;1675567;84;21147;-77
2022/11/24 10:14:54;;;;;;;43.65;22.90;;;;;;;1.77;100.00;97414.78;1664956;84;21085;-81
2022/11/24 10:17:45;;;;;;;50.33;28.23;;;;;;;1.68;100.00;97411.67;1663050;84;21029;-78
2022/11/24 10:20:26;;;;;;;43.45;23.70;;;;;;;1.72;100.00;97406.68;1701704;82;21124;-77
2022/11/24 10:23:05;;;;;;;41.42;20.23;;;;;;;1.69;100.00;97413.29;1704045;82;21143;-77
2022/11/24 10:25:43;;;;;;;41.70;20.97;;;;;;;1.65;100.00;97414.83;1690895;82;21055;-81
2022/11/24 10:28:13;;;;;;;43.58;23.55;;;;;;;1.62;100.00;97416.64;1688567;80;21128;-81
2022/11/24 10:30:40;;;;;;;48.60;28.95;;;;;;;1.63;100.00;97412.11;1712367;82;21029;-81
2022/11/24 10:33:19;;;;;;;53.63;31.70;;;;;;;1.66;100.00;97415.11;1720225;80;20977;-77
2022/11/24 10:35:51;;;;;;;56.55;33.85;;;;;;;1.70;100.00;97415.44;1700402;82;21099;-82
2022/11/24 10:38:38;;;;;;;50.92;26.73;;;;;;;1.74;100.00;97415.26;1703942;82;21466;-81
2022/11/24 10:41:19;;;;;;;34.70;20.05;;;;;;;1.74;100.00;97411.78;1703034;82;21123;-77
2022/11/24 10:43:46;;;;;;;41.58;21.95;;;;;;;1.76;100.00;97416.35;1695908;82;21090;-81
2022/11/24 10:46:17;;;;;;;50.20;23.55;;;;;;;1.74;100.00;97415.26;1713098;83;21433;-77
2022/11/24 10:49:03;;;;;;;47.53;26.65;;;;;;;1.72;100.00;97411.22;1711199;82;21561;-77
2022/11/24 10:52:04;;;;;;;58.60;28.05;;;;;;;1.63;100.00;97410.78;1704463;82;21110;-77
2022/11/24 10:54:31;;;;;;;70.45;28.67;;;;;;;1.60;100.00;97414.71;1712038;81;21553;-77
2022/11/24 10:56:58;;;;;;;93.70;37.83;;;;;;;1.60;100.00;97412.05;1710259;82;21542;-77
2022/11/24 10:59:34;;;;;;;63.98;28.27;;;;;;;1.56;100.00;97416.77;1709988;82;22234;-77
2022/11/24 11:02:04;;;;;;;77.62;33.02;;;;;;;1.55;100.00;97415.97;1730736;82;21493;-77
2022/11/24 11:04:33;;;;;;;78.02;36.90;;;;;;;1.54;100.00;97410.34;1693437;83;21097;-77
2022/11/24 11:07:15;;;;;;;;;;;;;;;1.53;100.00;97415.89;1696987;82;21195;-77
2022/11/24 11:09:42;;;;;;;94.90;43.40;;;;;;;1.52;100.00;97415.61;1703635;82;20155;-81
2022/11/24 11:12:12;;;;;;;92.05;43.00;;;;;;;1.52;100.00;97412.94;1708533;82;21031;-81
2022/11/24 11:14:39;;;;;;;72.15;36.25;;;;;;;1.54;100.00;97411.67;1710361;82;21020;-81
2022/11/24 11:17:34;;;;;;;72.62;35.10;;;;;;;1.54;100.00;97410.34;1704803;82;21092;-81
2022/11/24 11:20:29;;;;;;;54.60;27.35;;;;;;;1.52;100.00;97424.42;1704164;82;21722;-81
2022/11/24 11:22:55;;;;;;;78.67;37.55;;;;;;;1.52;100.00;97422.28;1702065;82;21029;-76
2022/11/24 11:25:33;;;;;;;77.70;39.38;;;;;;;1.54;100.00;97425.52;1701648;82;21159;-77
2022/11/24 11:28:27;;;;;;;79.97;41.95;;;;;;;1.54;100.00;97421.52;1698669;82;21076;-81
2022/11/24 11:30:58;;;;;;;82.97;39.75;;;;;;;1.53;100.00;97414.03;1703750;82;21006;-81
2022/11/24 11:33:28;;;;;;;89.92;38.50;;;;;;;1.55;100.00;97417.83;1702375;82;21001;-77